Alkol, West Virginia
Current Conditions -  °F | °C
As of 3:54 PM on Friday 19 Dec 2014 (Local Time) from KCRW Reporting Station
Light Snow Light Snow  
Wind Chill: 31°   Ceiling: 2200
Heat Index: 31°   Visibility: 8mi
Dew Point: 21°   Wind: 3mph
Humidity: 67%   Direction: NA
Pressure: 30.23"   Gusts: NA
Location:  38.16°N, 81.92°W
Report Text: KCRW 192054Z VRB03KT 8SM -SN OVC022 M01/M06 A3023 RMK AO2 SNB54 SLP247 FLURRIES P0000 60000 T10061061 58005
Loading
Personal Weather Stations






























Interactive Weather Map New forecast layout! Learn more

10-Day Weather Forecast

Advertisements
Track Severe Weather on mobile